sensor_id;sensor_type;location;lat;lon;timestamp;temperature;humidity
37456;DHT22;23316;50.718;7.328;2022-08-03T00:01:06;24.50;45.10
37456;DHT22;23316;50.718;7.328;2022-08-03T00:03:34;24.50;45.20
37456;DHT22;23316;50.718;7.328;2022-08-03T00:06:02;24.50;45.20
37456;DHT22;23316;50.718;7.328;2022-08-03T00:08:29;24.50;45.30
37456;DHT22;23316;50.718;7.328;2022-08-03T00:10:56;24.40;45.40
37456;DHT22;23316;50.718;7.328;2022-08-03T00:13:24;24.40;45.50
37456;DHT22;23316;50.718;7.328;2022-08-03T00:15:51;24.40;45.70
37456;DHT22;23316;50.718;7.328;2022-08-03T00:18:18;24.30;45.70
37456;DHT22;23316;50.718;7.328;2022-08-03T00:20:47;24.30;45.70
37456;DHT22;23316;50.718;7.328;2022-08-03T00:23:14;24.30;45.90
37456;DHT22;23316;50.718;7.328;2022-08-03T00:25:42;24.30;45.90
37456;DHT22;23316;50.718;7.328;2022-08-03T00:28:10;24.20;45.90
37456;DHT22;23316;50.718;7.328;2022-08-03T00:30:37;24.20;45.80
37456;DHT22;23316;50.718;7.328;2022-08-03T00:33:04;24.20;45.80
37456;DHT22;23316;50.718;7.328;2022-08-03T00:35:31;24.20;46.00
37456;DHT22;23316;50.718;7.328;2022-08-03T00:38:00;24.10;46.10
37456;DHT22;23316;50.718;7.328;2022-08-03T00:40:27;24.10;46.10
37456;DHT22;23316;50.718;7.328;2022-08-03T00:42:55;24.10;46.10
37456;DHT22;23316;50.718;7.328;2022-08-03T00:45:24;24.00;46.10
37456;DHT22;23316;50.718;7.328;2022-08-03T00:47:52;24.00;46.30
37456;DHT22;23316;50.718;7.328;2022-08-03T00:50:21;24.00;46.30
37456;DHT22;23316;50.718;7.328;2022-08-03T00:52:49;24.00;46.40
37456;DHT22;23316;50.718;7.328;2022-08-03T00:55:19;24.00;46.50
37456;DHT22;23316;50.718;7.328;2022-08-03T00:57:47;23.90;46.60
37456;DHT22;23316;50.718;7.328;2022-08-03T01:00:19;23.90;46.60
37456;DHT22;23316;50.718;7.328;2022-08-03T01:02:46;23.90;46.70
37456;DHT22;23316;50.718;7.328;2022-08-03T01:05:14;23.80;46.60
37456;DHT22;23316;50.718;7.328;2022-08-03T01:07:49;23.80;46.70
37456;DHT22;23316;50.718;7.328;2022-08-03T01:10:31;23.80;46.70
37456;DHT22;23316;50.718;7.328;2022-08-03T01:13:05;23.70;46.80
37456;DHT22;23316;50.718;7.328;2022-08-03T01:15:39;23.70;46.80
37456;DHT22;23316;50.718;7.328;2022-08-03T01:18:15;23.70;46.90
37456;DHT22;23316;50.718;7.328;2022-08-03T01:20:44;23.70;47.00
37456;DHT22;23316;50.718;7.328;2022-08-03T01:23:36;23.70;46.70
37456;DHT22;23316;50.718;7.328;2022-08-03T01:26:19;23.70;47.10
37456;DHT22;23316;50.718;7.328;2022-08-03T01:29:06;23.60;47.00
37456;DHT22;23316;50.718;7.328;2022-08-03T01:31:41;23.60;47.30
37456;DHT22;23316;50.718;7.328;2022-08-03T01:34:13;23.60;47.30
37456;DHT22;23316;50.718;7.328;2022-08-03T01:36:45;23.50;47.20
37456;DHT22;23316;50.718;7.328;2022-08-03T01:39:15;23.50;47.40
37456;DHT22;23316;50.718;7.328;2022-08-03T01:41:47;23.50;47.40
37456;DHT22;23316;50.718;7.328;2022-08-03T01:44:15;23.40;47.60
37456;DHT22;23316;50.718;7.328;2022-08-03T01:46:45;23.40;47.60
37456;DHT22;23316;50.718;7.328;2022-08-03T01:49:16;23.40;47.60
37456;DHT22;23316;50.718;7.328;2022-08-03T01:51:46;23.40;47.60
37456;DHT22;23316;50.718;7.328;2022-08-03T01:54:14;23.40;47.70
37456;DHT22;23316;50.718;7.328;2022-08-03T01:56:42;23.30;47.80
37456;DHT22;23316;50.718;7.328;2022-08-03T01:59:10;23.30;47.90
37456;DHT22;23316;50.718;7.328;2022-08-03T02:01:40;23.30;47.90
37456;DHT22;23316;50.718;7.328;2022-08-03T02:07:32;23.20;48.00
37456;DHT22;23316;50.718;7.328;2022-08-03T02:10:03;23.20;48.00
37456;DHT22;23316;50.718;7.328;2022-08-03T02:12:33;23.20;48.00
37456;DHT22;23316;50.718;7.328;2022-08-03T02:15:01;23.10;48.10
37456;DHT22;23316;50.718;7.328;2022-08-03T02:17:30;23.10;48.20
37456;DHT22;23316;50.718;7.328;2022-08-03T02:19:59;23.10;48.20
37456;DHT22;23316;50.718;7.328;2022-08-03T02:22:30;23.00;48.20
37456;DHT22;23316;50.718;7.328;2022-08-03T02:25:17;23.10;48.30
37456;DHT22;23316;50.718;7.328;2022-08-03T02:27:50;23.00;48.40
37456;DHT22;23316;50.718;7.328;2022-08-03T02:30:18;23.00;48.40
37456;DHT22;23316;50.718;7.328;2022-08-03T02:32:54;23.00;48.30
37456;DHT22;23316;50.718;7.328;2022-08-03T02:35:25;23.00;48.50
37456;DHT22;23316;50.718;7.328;2022-08-03T02:38:01;22.90;48.50
37456;DHT22;23316;50.718;7.328;2022-08-03T02:40:30;22.90;48.60
37456;DHT22;23316;50.718;7.328;2022-08-03T02:43:01;22.90;48.60
37456;DHT22;23316;50.718;7.328;2022-08-03T02:45:31;22.90;48.60
37456;DHT22;23316;50.718;7.328;2022-08-03T02:48:02;22.90;48.60
37456;DHT22;23316;50.718;7.328;2022-08-03T02:50:32;22.80;48.70
37456;DHT22;23316;50.718;7.328;2022-08-03T02:53:02;22.80;48.70
37456;DHT22;23316;50.718;7.328;2022-08-03T02:55:31;22.80;48.80
37456;DHT22;23316;50.718;7.328;2022-08-03T02:58:01;22.80;48.90
37456;DHT22;23316;50.718;7.328;2022-08-03T03:00:30;22.80;48.90
37456;DHT22;23316;50.718;7.328;2022-08-03T03:02:59;22.80;48.90
37456;DHT22;23316;50.718;7.328;2022-08-03T03:05:27;22.70;48.90
37456;DHT22;23316;50.718;7.328;2022-08-03T03:07:55;22.70;49.00
37456;DHT22;23316;50.718;7.328;2022-08-03T03:10:24;22.70;49.10
37456;DHT22;23316;50.718;7.328;2022-08-03T03:12:55;22.70;49.20
37456;DHT22;23316;50.718;7.328;2022-08-03T03:15:23;22.70;49.20
37456;DHT22;23316;50.718;7.328;2022-08-03T03:17:52;22.60;49.20
37456;DHT22;23316;50.718;7.328;2022-08-03T03:20:20;22.60;49.20
37456;DHT22;23316;50.718;7.328;2022-08-03T03:22:48;22.60;49.20
37456;DHT22;23316;50.718;7.328;2022-08-03T03:25:16;22.60;49.30
37456;DHT22;23316;50.718;7.328;2022-08-03T03:27:46;22.60;49.30
37456;DHT22;23316;50.718;7.328;2022-08-03T03:30:14;22.50;49.40
37456;DHT22;23316;50.718;7.328;2022-08-03T03:32:41;22.50;49.30
37456;DHT22;23316;50.718;7.328;2022-08-03T03:35:09;22.50;49.40
37456;DHT22;23316;50.718;7.328;2022-08-03T03:37:36;22.50;49.40
37456;DHT22;23316;50.718;7.328;2022-08-03T03:40:04;22.40;49.40
37456;DHT22;23316;50.718;7.328;2022-08-03T03:42:34;22.40;49.50
37456;DHT22;23316;50.718;7.328;2022-08-03T03:45:05;22.40;49.60
37456;DHT22;23316;50.718;7.328;2022-08-03T03:47:33;22.40;49.70
37456;DHT22;23316;50.718;7.328;2022-08-03T03:50:01;22.40;49.70
37456;DHT22;23316;50.718;7.328;2022-08-03T03:52:29;22.30;49.70
37456;DHT22;23316;50.718;7.328;2022-08-03T03:54:57;22.30;49.80
37456;DHT22;23316;50.718;7.328;2022-08-03T03:57:24;22.30;49.80
37456;DHT22;23316;50.718;7.328;2022-08-03T03:59:52;22.30;49.80
37456;DHT22;23316;50.718;7.328;2022-08-03T04:02:20;22.30;49.90
37456;DHT22;23316;50.718;7.328;2022-08-03T04:04:48;22.30;49.90
37456;DHT22;23316;50.718;7.328;2022-08-03T04:07:36;22.30;50.00
37456;DHT22;23316;50.718;7.328;2022-08-03T04:10:27;22.20;49.90
37456;DHT22;23316;50.718;7.328;2022-08-03T04:13:13;22.20;49.90
37456;DHT22;23316;50.718;7.328;2022-08-03T04:15:42;22.20;50.10
37456;DHT22;23316;50.718;7.328;2022-08-03T04:18:12;22.20;50.10
37456;DHT22;23316;50.718;7.328;2022-08-03T04:20:44;22.20;50.20
37456;DHT22;23316;50.718;7.328;2022-08-03T04:23:13;22.20;50.20
37456;DHT22;23316;50.718;7.328;2022-08-03T04:25:41;22.20;50.10
37456;DHT22;23316;50.718;7.328;2022-08-03T04:28:09;22.10;50.00
37456;DHT22;23316;50.718;7.328;2022-08-03T04:30:38;22.10;50.10
37456;DHT22;23316;50.718;7.328;2022-08-03T04:33:14;22.10;50.20
37456;DHT22;23316;50.718;7.328;2022-08-03T04:35:43;22.10;50.20
37456;DHT22;23316;50.718;7.328;2022-08-03T04:38:13;22.10;50.20
37456;DHT22;23316;50.718;7.328;2022-08-03T04:40:42;22.10;50.20
37456;DHT22;23316;50.718;7.328;2022-08-03T04:43:12;22.10;50.10
37456;DHT22;23316;50.718;7.328;2022-08-03T04:45:41;22.10;50.20
37456;DHT22;23316;50.718;7.328;2022-08-03T04:48:09;22.10;50.20
37456;DHT22;23316;50.718;7.328;2022-08-03T04:50:38;22.10;50.20
37456;DHT22;23316;50.718;7.328;2022-08-03T04:53:06;22.10;50.30
37456;DHT22;23316;50.718;7.328;2022-08-03T04:55:34;22.10;50.30
37456;DHT22;23316;50.718;7.328;2022-08-03T04:58:03;22.10;50.30
37456;DHT22;23316;50.718;7.328;2022-08-03T05:00:31;22.10;50.40
37456;DHT22;23316;50.718;7.328;2022-08-03T05:02:58;22.10;50.40
37456;DHT22;23316;50.718;7.328;2022-08-03T05:05:25;22.10;50.40
37456;DHT22;23316;50.718;7.328;2022-08-03T05:07:54;22.10;50.40
37456;DHT22;23316;50.718;7.328;2022-08-03T05:10:22;22.10;50.50
37456;DHT22;23316;50.718;7.328;2022-08-03T05:12:49;22.10;50.60
37456;DHT22;23316;50.718;7.328;2022-08-03T05:15:17;22.10;50.80
37456;DHT22;23316;50.718;7.328;2022-08-03T05:17:44;22.10;50.80
37456;DHT22;23316;50.718;7.328;2022-08-03T05:20:11;22.10;51.00
37456;DHT22;23316;50.718;7.328;2022-08-03T05:22:38;22.10;51.20
37456;DHT22;23316;50.718;7.328;2022-08-03T05:25:07;22.10;51.20
37456;DHT22;23316;50.718;7.328;2022-08-03T05:27:35;22.10;51.30
37456;DHT22;23316;50.718;7.328;2022-08-03T05:30:03;22.20;51.50
37456;DHT22;23316;50.718;7.328;2022-08-03T05:32:30;22.20;51.80
37456;DHT22;23316;50.718;7.328;2022-08-03T05:34:58;22.20;51.90
37456;DHT22;23316;50.718;7.328;2022-08-03T05:37:25;22.20;52.20
37456;DHT22;23316;50.718;7.328;2022-08-03T05:39:53;22.30;52.40
37456;DHT22;23316;50.718;7.328;2022-08-03T05:42:21;22.30;52.70
37456;DHT22;23316;50.718;7.328;2022-08-03T05:44:48;22.30;52.80
37456;DHT22;23316;50.718;7.328;2022-08-03T05:47:16;22.30;52.90
37456;DHT22;23316;50.718;7.328;2022-08-03T05:49:43;22.30;53.00
37456;DHT22;23316;50.718;7.328;2022-08-03T05:52:10;22.40;53.20
37456;DHT22;23316;50.718;7.328;2022-08-03T05:54:37;22.40;53.30
37456;DHT22;23316;50.718;7.328;2022-08-03T05:57:04;22.40;53.50
37456;DHT22;23316;50.718;7.328;2022-08-03T05:59:33;22.50;53.60
37456;DHT22;23316;50.718;7.328;2022-08-03T06:02:00;22.50;53.80
37456;DHT22;23316;50.718;7.328;2022-08-03T06:04:27;22.60;54.00
37456;DHT22;23316;50.718;7.328;2022-08-03T06:06:55;22.70;54.20
37456;DHT22;23316;50.718;7.328;2022-08-03T06:09:22;22.70;54.40
37456;DHT22;23316;50.718;7.328;2022-08-03T06:11:49;22.80;53.50
37456;DHT22;23316;50.718;7.328;2022-08-03T06:14:16;22.80;53.70
37456;DHT22;23316;50.718;7.328;2022-08-03T06:16:45;22.90;53.80
37456;DHT22;23316;50.718;7.328;2022-08-03T06:19:12;22.90;53.80
37456;DHT22;23316;50.718;7.328;2022-08-03T06:21:39;23.00;53.80
37456;DHT22;23316;50.718;7.328;2022-08-03T06:24:07;23.00;53.80
37456;DHT22;23316;50.718;7.328;2022-08-03T06:26:34;23.10;54.00
37456;DHT22;23316;50.718;7.328;2022-08-03T06:29:01;23.20;54.10
37456;DHT22;23316;50.718;7.328;2022-08-03T06:31:28;23.30;54.00
37456;DHT22;23316;50.718;7.328;2022-08-03T06:33:57;23.30;54.10
37456;DHT22;23316;50.718;7.328;2022-08-03T06:36:25;23.40;54.20
37456;DHT22;23316;50.718;7.328;2022-08-03T06:38:56;23.40;54.00
37456;DHT22;23316;50.718;7.328;2022-08-03T06:41:23;23.50;54.20
37456;DHT22;23316;50.718;7.328;2022-08-03T06:43:51;23.50;53.90
37456;DHT22;23316;50.718;7.328;2022-08-03T06:46:18;23.60;53.80
37456;DHT22;23316;50.718;7.328;2022-08-03T06:48:45;23.70;53.50
37456;DHT22;23316;50.718;7.328;2022-08-03T06:51:14;23.70;53.50
37456;DHT22;23316;50.718;7.328;2022-08-03T06:53:41;23.80;53.50
37456;DHT22;23316;50.718;7.328;2022-08-03T06:56:08;23.80;53.20
37456;DHT22;23316;50.718;7.328;2022-08-03T06:58:36;23.90;53.30
37456;DHT22;23316;50.718;7.328;2022-08-03T07:01:03;24.00;53.00
37456;DHT22;23316;50.718;7.328;2022-08-03T07:03:30;24.00;52.90
37456;DHT22;23316;50.718;7.328;2022-08-03T07:05:57;24.10;52.80
37456;DHT22;23316;50.718;7.328;2022-08-03T07:08:26;24.10;52.80
37456;DHT22;23316;50.718;7.328;2022-08-03T07:10:53;24.20;52.70
37456;DHT22;23316;50.718;7.328;2022-08-03T07:13:20;24.30;52.70
37456;DHT22;23316;50.718;7.328;2022-08-03T07:15:47;24.30;52.50
37456;DHT22;23316;50.718;7.328;2022-08-03T07:18:15;24.40;52.20
37456;DHT22;23316;50.718;7.328;2022-08-03T07:20:42;24.50;51.90
37456;DHT22;23316;50.718;7.328;2022-08-03T07:23:09;24.50;51.70
37456;DHT22;23316;50.718;7.328;2022-08-03T07:25:38;24.60;51.70
37456;DHT22;23316;50.718;7.328;2022-08-03T07:28:05;24.70;51.50
37456;DHT22;23316;50.718;7.328;2022-08-03T07:30:33;24.80;51.20
37456;DHT22;23316;50.718;7.328;2022-08-03T07:33:00;24.80;51.30
37456;DHT22;23316;50.718;7.328;2022-08-03T07:35:28;25.00;51.20
37456;DHT22;23316;50.718;7.328;2022-08-03T07:37:55;25.00;51.10
37456;DHT22;23316;50.718;7.328;2022-08-03T07:40:22;25.10;51.00
37456;DHT22;23316;50.718;7.328;2022-08-03T07:42:51;25.20;50.80
37456;DHT22;23316;50.718;7.328;2022-08-03T07:45:18;25.30;50.90
37456;DHT22;23316;50.718;7.328;2022-08-03T07:47:46;25.40;50.50
37456;DHT22;23316;50.718;7.328;2022-08-03T07:50:13;25.50;50.10
37456;DHT22;23316;50.718;7.328;2022-08-03T07:52:40;25.60;50.10
37456;DHT22;23316;50.718;7.328;2022-08-03T07:55:14;25.70;50.10
37456;DHT22;23316;50.718;7.328;2022-08-03T07:57:42;25.80;50.20
37456;DHT22;23316;50.718;7.328;2022-08-03T08:00:14;25.90;49.90
37456;DHT22;23316;50.718;7.328;2022-08-03T08:02:43;26.00;49.90
37456;DHT22;23316;50.718;7.328;2022-08-03T08:05:10;26.10;49.80
37456;DHT22;23316;50.718;7.328;2022-08-03T08:07:38;26.20;49.20
37456;DHT22;23316;50.718;7.328;2022-08-03T08:10:07;26.30;49.20
37456;DHT22;23316;50.718;7.328;2022-08-03T08:12:35;26.30;48.90
37456;DHT22;23316;50.718;7.328;2022-08-03T08:15:04;26.40;48.70
37456;DHT22;23316;50.718;7.328;2022-08-03T08:17:42;26.60;47.80
37456;DHT22;23316;50.718;7.328;2022-08-03T08:20:10;26.70;47.20
37456;DHT22;23316;50.718;7.328;2022-08-03T08:22:38;26.80;47.90
37456;DHT22;23316;50.718;7.328;2022-08-03T08:25:06;26.90;47.10
37456;DHT22;23316;50.718;7.328;2022-08-03T08:27:35;27.10;46.80
37456;DHT22;23316;50.718;7.328;2022-08-03T08:30:07;27.20;46.70
37456;DHT22;23316;50.718;7.328;2022-08-03T08:32:34;27.30;46.30
37456;DHT22;23316;50.718;7.328;2022-08-03T08:35:05;27.30;46.10
37456;DHT22;23316;50.718;7.328;2022-08-03T08:37:32;27.40;45.60
37456;DHT22;23316;50.718;7.328;2022-08-03T08:40:00;27.50;45.30
37456;DHT22;23316;50.718;7.328;2022-08-03T08:42:28;27.60;45.50
37456;DHT22;23316;50.718;7.328;2022-08-03T08:44:55;27.60;45.20
37456;DHT22;23316;50.718;7.328;2022-08-03T08:47:23;27.70;45.20
37456;DHT22;23316;50.718;7.328;2022-08-03T08:49:53;27.80;45.00
37456;DHT22;23316;50.718;7.328;2022-08-03T08:52:24;27.80;45.00
37456;DHT22;23316;50.718;7.328;2022-08-03T08:54:55;27.90;44.40
37456;DHT22;23316;50.718;7.328;2022-08-03T08:57:25;28.00;44.40
37456;DHT22;23316;50.718;7.328;2022-08-03T08:59:55;28.00;44.10
37456;DHT22;23316;50.718;7.328;2022-08-03T09:02:22;28.10;44.10
37456;DHT22;23316;50.718;7.328;2022-08-03T09:04:50;28.10;43.80
37456;DHT22;23316;50.718;7.328;2022-08-03T09:07:17;28.10;43.40
37456;DHT22;23316;50.718;7.328;2022-08-03T09:09:46;28.20;43.00
37456;DHT22;23316;50.718;7.328;2022-08-03T09:12:13;28.20;43.10
37456;DHT22;23316;50.718;7.328;2022-08-03T09:14:40;28.20;42.90
37456;DHT22;23316;50.718;7.328;2022-08-03T09:17:08;28.30;42.60
37456;DHT22;23316;50.718;7.328;2022-08-03T09:19:35;28.30;42.80
37456;DHT22;23316;50.718;7.328;2022-08-03T09:22:10;28.40;42.80
37456;DHT22;23316;50.718;7.328;2022-08-03T09:24:55;28.50;42.50
37456;DHT22;23316;50.718;7.328;2022-08-03T09:27:23;28.60;42.30
37456;DHT22;23316;50.718;7.328;2022-08-03T09:29:52;28.60;42.10
37456;DHT22;23316;50.718;7.328;2022-08-03T09:32:20;28.70;41.70
37456;DHT22;23316;50.718;7.328;2022-08-03T09:34:48;28.80;40.80
37456;DHT22;23316;50.718;7.328;2022-08-03T09:37:18;28.80;40.80
37456;DHT22;23316;50.718;7.328;2022-08-03T09:39:46;28.90;39.70
37456;DHT22;23316;50.718;7.328;2022-08-03T09:42:16;29.10;39.50
37456;DHT22;23316;50.718;7.328;2022-08-03T09:44:45;29.20;39.50
37456;DHT22;23316;50.718;7.328;2022-08-03T09:47:15;29.30;39.70
37456;DHT22;23316;50.718;7.328;2022-08-03T09:49:55;29.40;40.00
37456;DHT22;23316;50.718;7.328;2022-08-03T09:52:29;29.50;39.90
37456;DHT22;23316;50.718;7.328;2022-08-03T09:54:56;29.60;39.70
37456;DHT22;23316;50.718;7.328;2022-08-03T09:57:27;29.70;39.50
37456;DHT22;23316;50.718;7.328;2022-08-03T10:00:05;29.70;39.40
37456;DHT22;23316;50.718;7.328;2022-08-03T10:02:35;29.70;39.30
37456;DHT22;23316;50.718;7.328;2022-08-03T10:05:04;29.80;37.90
37456;DHT22;23316;50.718;7.328;2022-08-03T10:07:41;29.70;38.90
37456;DHT22;23316;50.718;7.328;2022-08-03T10:10:09;29.80;38.40
37456;DHT22;23316;50.718;7.328;2022-08-03T10:12:39;29.80;37.50
37456;DHT22;23316;50.718;7.328;2022-08-03T10:15:07;29.90;36.90
37456;DHT22;23316;50.718;7.328;2022-08-03T10:17:35;29.90;37.20
37456;DHT22;23316;50.718;7.328;2022-08-03T10:20:03;30.00;36.80
37456;DHT22;23316;50.718;7.328;2022-08-03T10:22:33;30.00;36.40
37456;DHT22;23316;50.718;7.328;2022-08-03T10:25:03;30.10;36.70
37456;DHT22;23316;50.718;7.328;2022-08-03T10:27:35;30.20;36.90
37456;DHT22;23316;50.718;7.328;2022-08-03T10:30:06;30.30;36.90
37456;DHT22;23316;50.718;7.328;2022-08-03T10:32:37;30.30;35.90
37456;DHT22;23316;50.718;7.328;2022-08-03T10:35:10;30.50;37.20
37456;DHT22;23316;50.718;7.328;2022-08-03T10:37:40;30.50;37.50
37456;DHT22;23316;50.718;7.328;2022-08-03T10:40:13;30.60;37.20
37456;DHT22;23316;50.718;7.328;2022-08-03T10:42:42;30.60;35.90
37456;DHT22;23316;50.718;7.328;2022-08-03T10:45:17;30.60;36.80
37456;DHT22;23316;50.718;7.328;2022-08-03T10:47:46;30.70;35.80
37456;DHT22;23316;50.718;7.328;2022-08-03T10:50:15;30.70;35.50
37456;DHT22;23316;50.718;7.328;2022-08-03T10:52:55;30.70;35.20
37456;DHT22;23316;50.718;7.328;2022-08-03T10:55:30;30.70;36.10
37456;DHT22;23316;50.718;7.328;2022-08-03T10:58:23;30.80;35.20
37456;DHT22;23316;50.718;7.328;2022-08-03T11:01:12;30.80;35.80
37456;DHT22;23316;50.718;7.328;2022-08-03T11:04:13;30.90;35.90
37456;DHT22;23316;50.718;7.328;2022-08-03T11:06:41;30.90;36.00
37456;DHT22;23316;50.718;7.328;2022-08-03T11:09:15;31.00;36.40
37456;DHT22;23316;50.718;7.328;2022-08-03T11:11:44;31.00;35.80
37456;DHT22;23316;50.718;7.328;2022-08-03T11:14:13;31.00;35.10
37456;DHT22;23316;50.718;7.328;2022-08-03T11:16:43;31.10;35.50
37456;DHT22;23316;50.718;7.328;2022-08-03T11:19:13;31.10;34.40
37456;DHT22;23316;50.718;7.328;2022-08-03T11:21:54;31.20;34.60
37456;DHT22;23316;50.718;7.328;2022-08-03T11:27:38;31.30;35.50
37456;DHT22;23316;50.718;7.328;2022-08-03T11:30:06;31.40;36.00
37456;DHT22;23316;50.718;7.328;2022-08-03T11:32:55;31.40;35.70
37456;DHT22;23316;50.718;7.328;2022-08-03T11:35:24;31.50;35.70
37456;DHT22;23316;50.718;7.328;2022-08-03T11:38:09;31.50;35.80
37456;DHT22;23316;50.718;7.328;2022-08-03T11:40:44;31.60;34.90
37456;DHT22;23316;50.718;7.328;2022-08-03T11:43:44;31.60;35.60
37456;DHT22;23316;50.718;7.328;2022-08-03T11:46:13;31.70;34.50
37456;DHT22;23316;50.718;7.328;2022-08-03T11:48:47;31.70;34.20
37456;DHT22;23316;50.718;7.328;2022-08-03T11:51:22;31.80;35.00
37456;DHT22;23316;50.718;7.328;2022-08-03T11:53:54;31.80;34.20
37456;DHT22;23316;50.718;7.328;2022-08-03T11:56:22;31.90;35.00
37456;DHT22;23316;50.718;7.328;2022-08-03T11:58:50;31.90;35.30
37456;DHT22;23316;50.718;7.328;2022-08-03T12:01:19;31.90;35.80
37456;DHT22;23316;50.718;7.328;2022-08-03T12:03:48;32.00;35.00
37456;DHT22;23316;50.718;7.328;2022-08-03T12:06:16;32.00;34.30
37456;DHT22;23316;50.718;7.328;2022-08-03T12:08:45;32.00;34.90
37456;DHT22;23316;50.718;7.328;2022-08-03T12:11:14;32.00;35.20
37456;DHT22;23316;50.718;7.328;2022-08-03T12:13:42;32.10;35.30
37456;DHT22;23316;50.718;7.328;2022-08-03T12:16:16;32.10;34.80
37456;DHT22;23316;50.718;7.328;2022-08-03T12:18:43;32.20;34.80
37456;DHT22;23316;50.718;7.328;2022-08-03T12:21:12;32.20;35.40
37456;DHT22;23316;50.718;7.328;2022-08-03T12:23:39;32.20;34.80
37456;DHT22;23316;50.718;7.328;2022-08-03T12:26:08;32.30;34.70
37456;DHT22;23316;50.718;7.328;2022-08-03T12:28:36;32.20;33.60
37456;DHT22;23316;50.718;7.328;2022-08-03T12:31:06;32.30;34.50
37456;DHT22;23316;50.718;7.328;2022-08-03T12:33:55;32.30;34.70
37456;DHT22;23316;50.718;7.328;2022-08-03T12:36:24;32.30;34.30
37456;DHT22;23316;50.718;7.328;2022-08-03T12:38:57;32.30;34.70
37456;DHT22;23316;50.718;7.328;2022-08-03T12:41:29;32.20;34.80
37456;DHT22;23316;50.718;7.328;2022-08-03T12:43:56;32.30;33.90
37456;DHT22;23316;50.718;7.328;2022-08-03T12:46:30;32.20;34.20
37456;DHT22;23316;50.718;7.328;2022-08-03T12:49:03;32.20;35.10
37456;DHT22;23316;50.718;7.328;2022-08-03T12:51:33;32.30;35.00
37456;DHT22;23316;50.718;7.328;2022-08-03T12:54:01;32.40;35.30
37456;DHT22;23316;50.718;7.328;2022-08-03T12:56:28;32.40;34.90
37456;DHT22;23316;50.718;7.328;2022-08-03T12:58:56;32.50;34.40
37456;DHT22;23316;50.718;7.328;2022-08-03T13:01:23;32.50;33.70
37456;DHT22;23316;50.718;7.328;2022-08-03T13:03:52;32.60;34.70
37456;DHT22;23316;50.718;7.328;2022-08-03T13:06:22;32.70;34.60
37456;DHT22;23316;50.718;7.328;2022-08-03T13:09:01;32.70;33.80
37456;DHT22;23316;50.718;7.328;2022-08-03T13:11:29;32.80;33.80
37456;DHT22;23316;50.718;7.328;2022-08-03T13:13:56;32.80;34.30
37456;DHT22;23316;50.718;7.328;2022-08-03T13:16:23;32.80;34.20
37456;DHT22;23316;50.718;7.328;2022-08-03T13:18:51;32.80;34.50
37456;DHT22;23316;50.718;7.328;2022-08-03T13:21:20;32.90;34.10
37456;DHT22;23316;50.718;7.328;2022-08-03T13:23:47;32.90;34.00
37456;DHT22;23316;50.718;7.328;2022-08-03T13:26:16;33.00;33.50
37456;DHT22;23316;50.718;7.328;2022-08-03T13:28:43;33.00;33.20
37456;DHT22;23316;50.718;7.328;2022-08-03T13:31:10;33.00;33.10
37456;DHT22;23316;50.718;7.328;2022-08-03T13:33:37;33.10;33.10
37456;DHT22;23316;50.718;7.328;2022-08-03T13:36:06;33.20;32.90
37456;DHT22;23316;50.718;7.328;2022-08-03T13:38:33;33.20;32.80
37456;DHT22;23316;50.718;7.328;2022-08-03T13:41:01;33.20;31.90
37456;DHT22;23316;50.718;7.328;2022-08-03T13:43:30;33.30;31.50
37456;DHT22;23316;50.718;7.328;2022-08-03T13:45:57;33.30;32.30
37456;DHT22;23316;50.718;7.328;2022-08-03T13:48:25;33.40;32.30
37456;DHT22;23316;50.718;7.328;2022-08-03T13:50:52;33.40;32.40
37456;DHT22;23316;50.718;7.328;2022-08-03T13:53:19;33.50;31.80
37456;DHT22;23316;50.718;7.328;2022-08-03T13:55:46;33.50;31.90
37456;DHT22;23316;50.718;7.328;2022-08-03T13:58:13;33.60;32.30
37456;DHT22;23316;50.718;7.328;2022-08-03T14:00:42;33.60;32.30
37456;DHT22;23316;50.718;7.328;2022-08-03T14:03:09;33.70;32.50
37456;DHT22;23316;50.718;7.328;2022-08-03T14:05:36;33.70;31.90
37456;DHT22;23316;50.718;7.328;2022-08-03T14:08:04;33.80;30.90
37456;DHT22;23316;50.718;7.328;2022-08-03T14:10:37;33.80;31.00
37456;DHT22;23316;50.718;7.328;2022-08-03T14:13:05;33.80;30.30
37456;DHT22;23316;50.718;7.328;2022-08-03T14:15:32;33.80;31.20
37456;DHT22;23316;50.718;7.328;2022-08-03T14:18:01;33.80;31.10
37456;DHT22;23316;50.718;7.328;2022-08-03T14:20:28;33.80;30.60
37456;DHT22;23316;50.718;7.328;2022-08-03T14:22:56;33.80;31.10
37456;DHT22;23316;50.718;7.328;2022-08-03T14:25:23;33.80;31.60
37456;DHT22;23316;50.718;7.328;2022-08-03T14:27:51;33.90;30.90
37456;DHT22;23316;50.718;7.328;2022-08-03T14:30:18;33.90;30.30
37456;DHT22;23316;50.718;7.328;2022-08-03T14:32:45;33.90;31.10
37456;DHT22;23316;50.718;7.328;2022-08-03T14:35:14;33.90;31.70
37456;DHT22;23316;50.718;7.328;2022-08-03T14:37:41;33.90;31.90
37456;DHT22;23316;50.718;7.328;2022-08-03T14:40:09;34.00;31.90
37456;DHT22;23316;50.718;7.328;2022-08-03T14:42:36;34.00;31.70
37456;DHT22;23316;50.718;7.328;2022-08-03T14:45:04;34.00;31.70
37456;DHT22;23316;50.718;7.328;2022-08-03T14:47:31;34.00;31.10
37456;DHT22;23316;50.718;7.328;2022-08-03T14:49:59;34.10;31.00
37456;DHT22;23316;50.718;7.328;2022-08-03T14:52:30;34.00;30.60
37456;DHT22;23316;50.718;7.328;2022-08-03T14:54:58;34.10;30.30
37456;DHT22;23316;50.718;7.328;2022-08-03T14:57:25;34.10;30.80
37456;DHT22;23316;50.718;7.328;2022-08-03T14:59:53;34.10;30.60
37456;DHT22;23316;50.718;7.328;2022-08-03T15:02:20;34.10;30.80
37456;DHT22;23316;50.718;7.328;2022-08-03T15:04:47;34.10;30.80
37456;DHT22;23316;50.718;7.328;2022-08-03T15:07:14;34.20;30.40
37456;DHT22;23316;50.718;7.328;2022-08-03T15:09:43;34.20;30.80
37456;DHT22;23316;50.718;7.328;2022-08-03T15:12:10;34.20;30.20
37456;DHT22;23316;50.718;7.328;2022-08-03T15:14:38;34.20;30.30
37456;DHT22;23316;50.718;7.328;2022-08-03T15:17:05;34.20;30.10
37456;DHT22;23316;50.718;7.328;2022-08-03T15:19:32;34.20;30.20
37456;DHT22;23316;50.718;7.328;2022-08-03T15:22:00;34.20;30.20
37456;DHT22;23316;50.718;7.328;2022-08-03T15:24:27;34.30;30.00
37456;DHT22;23316;50.718;7.328;2022-08-03T15:26:56;34.20;29.90
37456;DHT22;23316;50.718;7.328;2022-08-03T15:29:23;34.20;30.00
37456;DHT22;23316;50.718;7.328;2022-08-03T15:31:50;34.20;30.10
37456;DHT22;23316;50.718;7.328;2022-08-03T15:34:18;34.20;30.00
37456;DHT22;23316;50.718;7.328;2022-08-03T15:36:45;34.20;29.90
37456;DHT22;23316;50.718;7.328;2022-08-03T15:39:12;34.20;30.10
37456;DHT22;23316;50.718;7.328;2022-08-03T15:41:39;34.20;29.90
37456;DHT22;23316;50.718;7.328;2022-08-03T15:44:08;34.20;30.60
37456;DHT22;23316;50.718;7.328;2022-08-03T15:46:35;34.20;29.80
37456;DHT22;23316;50.718;7.328;2022-08-03T15:49:02;34.20;30.00
37456;DHT22;23316;50.718;7.328;2022-08-03T15:51:29;34.20;30.00